Terminal Aerodrome Forecast
Issued by NWS Upton, NY

Home | Current Version | Previous Version | Text Only | Print | Product List | Glossary On
Versions: 1 2 3 4 5 6 7 8 9 10 11 12 13 14 15 16 17 18 19 20 21 22 23 24 25 26 27 28 29 30 31 32 33
000
FTUS41 KOKX 061531 AAB
TAFJFK
TAF AMD
KJFK 061531Z 0616/0718 07012KT 5SM -SHRADZ BR OVC012
     FM061900 07018G24KT 3SM -SHRADZ BR OVC008
     FM070000 08011KT 3/4SM -DZ BR OVC004
     FM070600 08006KT 3/4SM -DZ BR OVC004
     FM071500 15008KT 5SM BR SCT007 BKN015=

USA.gov is the U.S. government's official web portal to all federal, state and local government web resources and services.